createdAt,value
2019-02-20T00:00:10.119Z,35.13
2019-02-20T00:05:07.693Z,35.53
2019-02-20T00:10:04.723Z,34.57
2019-02-20T00:15:01.701Z,25.73
2019-02-20T00:19:58.729Z,38.00
2019-02-20T00:24:57.773Z,35.27
2019-02-20T00:29:54.770Z,33.33
2019-02-20T00:34:51.887Z,31.03
2019-02-20T00:39:48.930Z,30.20
2019-02-20T00:44:54.944Z,35.30
2019-02-20T00:49:51.910Z,48.40
2019-02-20T00:54:48.866Z,47.87
2019-02-20T00:59:45.842Z,59.20
2019-02-20T01:04:42.912Z,56.37
2019-02-20T01:09:41.769Z,42.50
2019-02-20T01:14:38.787Z,43.63
2019-02-20T01:19:35.789Z,52.93
2019-02-20T01:24:32.795Z,44.00
2019-02-20T01:29:30.235Z,40.50
2019-02-20T01:34:27.209Z,33.00
2019-02-20T01:39:24.326Z,30.47
2019-02-20T01:44:21.414Z,33.77
2019-02-20T01:49:18.391Z,35.97
2019-02-20T01:54:15.426Z,35.70
2019-02-20T01:59:14.247Z,39.90
2019-02-20T02:04:11.245Z,48.57
2019-02-20T02:09:08.448Z,35.43
2019-02-20T02:14:05.569Z,30.80
2019-02-20T02:19:02.560Z,50.33
2019-02-20T02:23:59.555Z,33.73
2019-02-20T02:28:56.730Z,40.47
2019-02-20T02:33:55.629Z,53.77
2019-02-20T02:38:52.638Z,46.97
2019-02-20T02:43:49.835Z,47.83
2019-02-20T02:48:46.901Z,59.97
2019-02-20T02:53:44.003Z,57.37
2019-02-20T02:58:41.059Z,55.73
2019-02-20T03:03:38.219Z,61.43
2019-02-20T03:08:35.221Z,53.67
2019-02-20T03:13:32.289Z,64.00
2019-02-20T03:18:29.234Z,55.87
2019-02-20T03:23:26.214Z,72.93
2019-02-20T03:28:23.162Z,59.63
2019-02-20T03:33:20.162Z,58.47
2019-02-20T03:38:17.331Z,64.70
2019-02-20T03:43:14.475Z,53.67
2019-02-20T03:48:11.571Z,48.27
2019-02-20T03:53:08.743Z,53.47
2019-02-20T03:58:05.729Z,38.90
2019-02-20T04:03:02.859Z,44.80
2019-02-20T04:07:59.881Z,51.63
2019-02-20T04:12:56.988Z,45.60
2019-02-20T04:17:54.106Z,45.97
2019-02-20T04:22:51.225Z,40.70
2019-02-20T04:27:48.255Z,44.90
2019-02-20T04:32:45.301Z,36.27
2019-02-20T04:37:42.248Z,45.43
2019-02-20T04:42:39.354Z,32.20
2019-02-20T04:47:36.753Z,36.50
2019-02-20T04:52:35.839Z,41.80
2019-02-20T04:57:32.813Z,35.60
2019-02-20T05:02:29.832Z,32.43
2019-02-20T05:07:26.804Z,32.13
2019-02-20T05:12:23.871Z,30.23
2019-02-20T05:17:21.038Z,28.77
2019-02-20T05:22:18.115Z,27.63
2019-02-20T05:27:15.055Z,29.17
2019-02-20T05:32:12.166Z,29.30
2019-02-20T05:37:09.149Z,29.97
2019-02-20T05:42:06.340Z,27.63
2019-02-20T05:47:03.433Z,26.43
2019-02-20T05:52:00.510Z,28.13
2019-02-20T05:56:59.078Z,25.13
2019-02-20T06:02:00.196Z,34.97
2019-02-20T06:06:57.130Z,31.37
2019-02-20T06:11:54.335Z,28.33
2019-02-20T06:16:51.366Z,35.73
2019-02-20T06:21:54.114Z,31.10
2019-02-20T06:26:51.131Z,30.30
2019-02-20T06:31:48.215Z,32.10
2019-02-20T06:36:45.152Z,30.07
2019-02-20T06:41:44.057Z,24.33
2019-02-20T06:46:41.071Z,33.87
2019-02-20T06:51:40.842Z,31.00
2019-02-20T06:56:37.951Z,33.07
2019-02-20T07:01:35.964Z,29.37
2019-02-20T07:06:59.686Z,27.20
2019-02-20T07:12:17.239Z,27.67
2019-02-20T07:17:47.859Z,30.63
2019-02-20T07:23:24.105Z,33.23
2019-02-20T07:28:36.725Z,31.20
2019-02-20T07:33:33.990Z,34.47
2019-02-20T07:38:32.979Z,27.63
2019-02-20T07:43:30.380Z,29.27
2019-02-20T07:48:30.334Z,32.23
2019-02-20T07:53:31.423Z,27.67
2019-02-20T07:58:29.988Z,40.40
2019-02-20T08:03:29.529Z,30.50
2019-02-20T08:08:26.217Z,29.63
2019-02-20T08:13:26.638Z,34.83
2019-02-20T08:18:24.483Z,31.93
2019-02-20T08:23:23.493Z,35.37
2019-02-20T08:47:53.408Z,28.73
2019-02-20T12:11:58.486Z,17.57
2019-02-20T12:16:55.772Z,14.80
2019-02-20T12:21:52.975Z,19.17
2019-02-20T12:26:52.830Z,13.43
2019-02-20T12:31:52.700Z,13.67
2019-02-20T12:36:50.991Z,8.30
2019-02-20T12:41:49.281Z,12.70
2019-02-20T12:46:50.280Z,11.80
2019-02-20T12:51:52.717Z,14.07
2019-02-20T12:56:49.926Z,12.20
2019-02-20T13:01:49.707Z,13.50
2019-02-20T13:06:46.980Z,11.10
2019-02-20T13:11:45.844Z,8.10
2019-02-20T13:16:42.954Z,8.07
2019-02-20T13:21:45.567Z,8.10
2019-02-20T13:26:53.192Z,10.97
2019-02-20T13:31:49.523Z,10.50
2019-02-20T13:36:46.606Z,11.53
2019-02-20T13:41:49.829Z,10.77
2019-02-20T13:46:58.759Z,9.33
2019-02-20T13:52:02.107Z,13.03
2019-02-20T13:57:03.380Z,12.37
2019-02-20T14:02:10.037Z,8.30
2019-02-20T14:07:11.484Z,7.83
2019-02-20T14:12:12.986Z,16.73
2019-02-20T14:17:15.393Z,8.67
2019-02-20T14:22:21.376Z,8.70
2019-02-20T14:27:32.107Z,8.00
2019-02-20T14:32:23.561Z,7.03
2019-02-20T14:37:23.379Z,6.10
2019-02-20T14:42:29.430Z,7.93
2019-02-20T14:47:28.390Z,10.10
2019-02-20T14:52:25.489Z,8.90
2019-02-20T14:57:23.334Z,7.50
2019-02-20T15:02:22.923Z,10.10
2019-02-20T15:07:23.803Z,8.30
2019-02-20T15:12:26.042Z,7.77
2019-02-20T15:17:24.289Z,9.60
2019-02-20T15:22:22.856Z,11.63
2019-02-20T15:27:28.718Z,9.83
2019-02-20T15:32:22.016Z,8.17
2019-02-20T15:37:19.070Z,8.53
2019-02-20T15:42:16.608Z,14.33
2019-02-20T15:47:13.844Z,10.53
2019-02-20T15:52:10.996Z,8.73
2019-02-20T15:57:08.033Z,9.83
2019-02-20T16:02:07.271Z,11.77
2019-02-20T16:07:04.374Z,11.57
2019-02-20T16:12:01.509Z,9.60
2019-02-20T16:16:58.827Z,14.63
2019-02-20T16:21:55.940Z,13.03
2019-02-20T16:26:55.795Z,12.13
2019-02-20T16:31:53.287Z,11.70
2019-02-20T16:36:50.358Z,23.27
2019-02-20T16:41:47.480Z,17.73
2019-02-20T16:46:44.874Z,23.20
2019-02-20T16:51:41.935Z,22.80
2019-02-20T16:56:41.583Z,26.17
2019-02-20T17:01:38.636Z,16.77
2019-02-20T17:06:35.709Z,25.23
2019-02-20T17:11:33.398Z,27.83
2019-02-20T17:16:30.610Z,30.03
2019-02-20T17:21:27.858Z,19.27
2019-02-20T17:26:25.230Z,20.20
2019-02-20T17:31:22.312Z,16.97
2019-02-20T17:36:22.413Z,16.73
2019-02-20T17:41:19.725Z,16.43
2019-02-20T17:46:18.845Z,26.57
2019-02-20T17:51:16.135Z,23.37
2019-02-20T17:56:13.178Z,37.10
2019-02-20T18:01:12.286Z,30.80
2019-02-20T18:06:09.252Z,27.47
2019-02-20T18:11:07.490Z,26.83
2019-02-20T18:16:05.741Z,56.87
2019-02-20T18:21:02.887Z,41.00
2019-02-20T18:25:59.874Z,37.67
2019-02-20T18:30:56.948Z,22.20
2019-02-20T18:35:55.801Z,24.27
2019-02-20T18:40:52.858Z,31.50
2019-02-20T18:45:52.233Z,22.67
2019-02-20T18:50:51.081Z,24.83
2019-02-20T18:55:48.159Z,20.73
2019-02-20T19:00:45.554Z,25.10
2019-02-20T19:05:42.717Z,24.30
2019-02-20T19:10:40.807Z,29.40
2019-02-20T19:15:49.250Z,30.97
2019-02-20T19:20:57.428Z,21.30
2019-02-20T19:26:33.522Z,29.77
2019-02-20T19:31:57.464Z,21.87
2019-02-20T19:37:12.317Z,23.17
2019-02-20T19:42:26.080Z,23.67
2019-02-20T19:48:02.054Z,18.93
2019-02-20T19:53:07.349Z,19.53
2019-02-20T19:58:30.135Z,22.13
2019-02-20T20:04:04.406Z,21.47
2019-02-20T20:09:28.397Z,24.67
2019-02-20T20:14:40.040Z,27.17
2019-02-20T20:19:45.496Z,27.30
2019-02-20T20:24:59.708Z,24.43
2019-02-20T20:30:05.737Z,26.23
2019-02-20T20:35:32.547Z,19.33
2019-02-20T20:40:44.788Z,21.17
2019-02-20T20:46:11.667Z,20.20
2019-02-20T20:51:58.550Z,25.23
2019-02-20T20:57:19.265Z,21.53
2019-02-20T21:02:30.631Z,24.17
2019-02-20T21:07:53.027Z,26.73
2019-02-20T21:13:24.477Z,22.37
2019-02-20T21:19:00.936Z,20.50
2019-02-20T21:24:47.346Z,21.03
2019-02-20T21:29:58.978Z,24.53
2019-02-20T21:35:10.357Z,26.93
2019-02-20T21:40:25.170Z,24.57
2019-02-20T21:45:45.468Z,29.47
2019-02-20T21:51:26.053Z,23.40
2019-02-20T21:56:49.941Z,22.27
2019-02-20T22:02:04.606Z,24.33
2019-02-20T22:07:32.836Z,25.27
2019-02-20T22:12:53.185Z,27.03
2019-02-20T22:18:21.051Z,22.77
2019-02-20T22:23:46.731Z,17.87
2019-02-20T22:28:58.042Z,18.83
2019-02-20T22:34:38.455Z,26.63
2019-02-20T22:39:53.025Z,16.80
2019-02-20T22:45:33.464Z,22.10
2019-02-20T22:51:11.772Z,19.53
2019-02-20T22:56:45.816Z,17.00
2019-02-20T23:02:12.507Z,26.97
2019-02-20T23:07:20.489Z,13.37
2019-02-20T23:12:49.258Z,22.30
2019-02-20T23:17:46.227Z,14.40
2019-02-20T23:22:43.333Z,15.67
2019-02-20T23:27:40.356Z,15.90
2019-02-20T23:32:37.369Z,25.67
2019-02-20T23:37:34.433Z,17.87
2019-02-20T23:42:33.356Z,14.50
2019-02-20T23:47:32.441Z,12.73
2019-02-20T23:52:29.481Z,13.67
2019-02-20T23:57:26.497Z,14.20
